sensor_id;sensor_type;location;lat;lon;timestamp;pressure;altitude;pressure_sealevel;temperature;humidity
42289;BME280;30230;47.520;19.016;2023-05-03T00:01:58;99381.84;;;13.76;100.00
42289;BME280;30230;47.520;19.016;2023-05-03T00:04:02;99381.03;;;13.75;100.00
42289;BME280;30230;47.520;19.016;2023-05-03T00:06:13;99372.47;;;13.72;100.00
42289;BME280;30230;47.520;19.016;2023-05-03T00:08:13;99379.50;;;13.79;100.00
42289;BME280;30230;47.520;19.016;2023-05-03T00:10:15;99383.91;;;13.80;100.00
42289;BME280;30230;47.520;19.016;2023-05-03T00:12:15;99368.38;;;13.88;100.00
42289;BME280;30230;47.520;19.016;2023-05-03T00:14:16;99378.25;;;13.82;100.00
42289;BME280;30230;47.520;19.016;2023-05-03T00:16:16;99373.91;;;13.74;100.00
42289;BME280;30230;47.520;19.016;2023-05-03T00:18:16;99373.75;;;13.69;100.00
42289;BME280;30230;47.520;19.016;2023-05-03T00:20:17;99376.09;;;13.66;100.00
42289;BME280;30230;47.520;19.016;2023-05-03T00:22:18;99372.53;;;13.65;100.00
42289;BME280;30230;47.520;19.016;2023-05-03T00:24:18;99369.00;;;13.65;100.00
42289;BME280;30230;47.520;19.016;2023-05-03T00:26:19;99368.44;;;13.81;100.00
42289;BME280;30230;47.520;19.016;2023-05-03T00:28:20;99361.88;;;13.64;100.00
42289;BME280;30230;47.520;19.016;2023-05-03T00:30:21;99363.34;;;13.66;100.00
42289;BME280;30230;47.520;19.016;2023-05-03T00:32:22;99357.13;;;13.59;100.00
42289;BME280;30230;47.520;19.016;2023-05-03T00:34:22;99357.13;;;13.59;100.00
42289;BME280;30230;47.520;19.016;2023-05-03T00:36:22;99361.88;;;13.64;100.00
42289;BME280;30230;47.520;19.016;2023-05-03T00:38:23;99364.84;;;13.62;100.00
42289;BME280;30230;47.520;19.016;2023-05-03T00:40:23;99366.06;;;13.66;100.00
42289;BME280;30230;47.520;19.016;2023-05-03T00:42:23;99364.66;;;13.57;100.00
42289;BME280;30230;47.520;19.016;2023-05-03T00:44:24;99367.94;;;13.66;100.00
42289;BME280;30230;47.520;19.016;2023-05-03T00:46:25;99359.66;;;13.54;100.00
42289;BME280;30230;47.520;19.016;2023-05-03T00:48:25;99365.06;;;13.61;100.00
42289;BME280;30230;47.520;19.016;2023-05-03T00:50:26;99377.63;;;13.55;100.00
42289;BME280;30230;47.520;19.016;2023-05-03T00:52:27;99379.28;;;13.56;100.00
42289;BME280;30230;47.520;19.016;2023-05-03T00:54:29;99370.75;;;13.52;100.00
42289;BME280;30230;47.520;19.016;2023-05-03T00:56:29;99372.19;;;13.55;100.00
42289;BME280;30230;47.520;19.016;2023-05-03T00:58:30;99382.00;;;13.56;100.00
42289;BME280;30230;47.520;19.016;2023-05-03T01:00:32;99376.34;;;13.58;100.00
42289;BME280;30230;47.520;19.016;2023-05-03T01:02:32;99379.72;;;13.53;100.00
42289;BME280;30230;47.520;19.016;2023-05-03T01:04:33;99383.47;;;13.52;100.00
42289;BME280;30230;47.520;19.016;2023-05-03T01:11:26;99383.09;;;13.48;100.00
42289;BME280;30230;47.520;19.016;2023-05-03T01:14:01;99386.84;;;13.47;100.00
42289;BME280;30230;47.520;19.016;2023-05-03T01:16:06;99383.72;;;13.50;100.00
42289;BME280;30230;47.520;19.016;2023-05-03T01:18:16;99373.78;;;13.38;100.00
42289;BME280;30230;47.520;19.016;2023-05-03T01:20:21;99391.69;;;13.45;100.00
42289;BME280;30230;47.520;19.016;2023-05-03T01:22:47;99383.75;;;13.44;100.00
42289;BME280;30230;47.520;19.016;2023-05-03T01:24:50;99385.84;;;13.42;100.00
42289;BME280;30230;47.520;19.016;2023-05-03T01:26:53;99395.44;;;13.44;100.00
42289;BME280;30230;47.520;19.016;2023-05-03T01:28:54;99397.28;;;13.50;100.00
42289;BME280;30230;47.520;19.016;2023-05-03T01:30:55;99387.91;;;13.46;100.00
42289;BME280;30230;47.520;19.016;2023-05-03T01:33:12;99398.13;;;13.51;100.00
42289;BME280;30230;47.520;19.016;2023-05-03T01:35:29;99399.38;;;13.48;100.00
42289;BME280;30230;47.520;19.016;2023-05-03T01:37:36;99394.16;;;13.47;100.00
42289;BME280;30230;47.520;19.016;2023-05-03T01:39:49;99390.84;;;13.45;100.00
42289;BME280;30230;47.520;19.016;2023-05-03T01:41:51;99398.59;;;13.41;100.00
42289;BME280;30230;47.520;19.016;2023-05-03T01:43:54;99377.59;;;13.30;100.00
42289;BME280;30230;47.520;19.016;2023-05-03T01:45:55;99390.94;;;13.32;100.00
42289;BME280;30230;47.520;19.016;2023-05-03T01:47:56;99392.75;;;13.38;100.00
42289;BME280;30230;47.520;19.016;2023-05-03T01:49:56;99386.97;;;13.27;100.00
42289;BME280;30230;47.520;19.016;2023-05-03T01:51:57;99394.28;;;13.34;100.00
42289;BME280;30230;47.520;19.016;2023-05-03T01:53:57;99387.56;;;13.36;100.00
42289;BME280;30230;47.520;19.016;2023-05-03T01:55:57;99389.03;;;13.32;100.00
42289;BME280;30230;47.520;19.016;2023-05-03T01:57:58;99394.44;;;13.39;100.00
42289;BME280;30230;47.520;19.016;2023-05-03T01:59:58;99386.31;;;13.39;100.00
42289;BME280;30230;47.520;19.016;2023-05-03T02:01:59;99375.66;;;13.37;100.00
42289;BME280;30230;47.520;19.016;2023-05-03T02:03:59;99379.84;;;13.33;100.00
42289;BME280;30230;47.520;19.016;2023-05-03T02:06:00;99378.25;;;13.25;100.00
42289;BME280;30230;47.520;19.016;2023-05-03T02:08:00;99381.13;;;13.31;100.00
42289;BME280;30230;47.520;19.016;2023-05-03T02:10:00;99374.88;;;13.30;100.00
42289;BME280;30230;47.520;19.016;2023-05-03T02:12:01;99368.63;;;13.29;100.00
42289;BME280;30230;47.520;19.016;2023-05-03T02:14:01;99376.97;;;13.28;100.00
42289;BME280;30230;47.520;19.016;2023-05-03T02:16:02;99379.28;;;13.24;100.00
42289;BME280;30230;47.520;19.016;2023-05-03T02:18:02;99369.06;;;13.20;100.00
42289;BME280;30230;47.520;19.016;2023-05-03T02:20:04;99371.16;;;13.24;100.00
42289;BME280;30230;47.520;19.016;2023-05-03T02:22:10;99366.09;;;13.28;100.00
42289;BME280;30230;47.520;19.016;2023-05-03T02:24:11;99364.84;;;13.31;100.00
42289;BME280;30230;47.520;19.016;2023-05-03T02:26:11;99362.38;;;13.29;100.00
42289;BME280;30230;47.520;19.016;2023-05-03T02:28:11;99350.31;;;13.18;100.00
42289;BME280;30230;47.520;19.016;2023-05-03T02:30:17;99361.38;;;13.23;100.00
42289;BME280;30230;47.520;19.016;2023-05-03T02:32:17;99375.13;;;13.22;100.00
42289;BME280;30230;47.520;19.016;2023-05-03T02:34:18;99373.25;;;13.22;100.00
42289;BME280;30230;47.520;19.016;2023-05-03T02:36:18;99359.47;;;13.17;100.00
42289;BME280;30230;47.520;19.016;2023-05-03T02:38:18;99357.78;;;13.23;100.00
42289;BME280;30230;47.520;19.016;2023-05-03T02:40:19;99363.63;;;13.26;100.00
42289;BME280;30230;47.520;19.016;2023-05-03T02:42:19;99356.47;;;13.39;100.00
42289;BME280;30230;47.520;19.016;2023-05-03T02:44:20;99360.09;;;13.26;100.00
42289;BME280;30230;47.520;19.016;2023-05-03T02:46:20;99376.78;;;13.23;100.00
42289;BME280;30230;47.520;19.016;2023-05-03T02:48:21;99370.94;;;13.26;100.00
42289;BME280;30230;47.520;19.016;2023-05-03T02:50:21;99361.53;;;13.28;100.00
42289;BME280;30230;47.520;19.016;2023-05-03T02:52:21;99355.50;;;13.20;100.00
42289;BME280;30230;47.520;19.016;2023-05-03T02:54:22;99354.44;;;13.21;100.00
42289;BME280;30230;47.520;19.016;2023-05-03T02:56:22;99350.72;;;13.15;100.00
42289;BME280;30230;47.520;19.016;2023-05-03T02:58:25;99356.22;;;13.40;100.00
42289;BME280;30230;47.520;19.016;2023-05-03T03:00:26;99350.22;;;13.32;100.00
42289;BME280;30230;47.520;19.016;2023-05-03T03:02:26;99340.88;;;13.21;100.00
42289;BME280;30230;47.520;19.016;2023-05-03T03:04:26;99343.56;;;13.27;100.00
42289;BME280;30230;47.520;19.016;2023-05-03T03:06:27;99346.53;;;13.26;100.00
42289;BME280;30230;47.520;19.016;2023-05-03T03:08:27;99345.03;;;13.30;100.00
42289;BME280;30230;47.520;19.016;2023-05-03T03:10:28;99349.22;;;13.26;100.00
42289;BME280;30230;47.520;19.016;2023-05-03T03:12:28;99332.56;;;13.22;100.00
42289;BME280;30230;47.520;19.016;2023-05-03T03:14:29;99345.69;;;13.25;100.00
42289;BME280;30230;47.520;19.016;2023-05-03T03:16:29;99344.47;;;13.21;100.00
42289;BME280;30230;47.520;19.016;2023-05-03T03:18:30;99338.59;;;13.18;100.00
42289;BME280;30230;47.520;19.016;2023-05-03T03:20:31;99345.31;;;13.15;100.00
42289;BME280;30230;47.520;19.016;2023-05-03T03:22:31;99348.41;;;13.19;100.00
42289;BME280;30230;47.520;19.016;2023-05-03T03:24:32;99349.25;;;13.19;100.00
42289;BME280;30230;47.520;19.016;2023-05-03T03:26:32;99353.19;;;13.30;100.00
42289;BME280;30230;47.520;19.016;2023-05-03T03:28:32;99351.97;;;13.19;100.00
42289;BME280;30230;47.520;19.016;2023-05-03T03:30:33;99347.59;;;13.18;100.00
42289;BME280;30230;47.520;19.016;2023-05-03T03:32:33;99354.50;;;13.14;100.00
42289;BME280;30230;47.520;19.016;2023-05-03T03:34:34;99370.31;;;13.24;100.00
42289;BME280;30230;47.520;19.016;2023-05-03T03:36:34;99356.16;;;13.15;100.00
42289;BME280;30230;47.520;19.016;2023-05-03T03:38:36;99360.75;;;13.15;100.00
42289;BME280;30230;47.520;19.016;2023-05-03T03:40:37;99359.69;;;13.16;100.00
42289;BME280;30230;47.520;19.016;2023-05-03T03:42:38;99352.34;;;13.29;100.00
42289;BME280;30230;47.520;19.016;2023-05-03T03:44:39;99349.41;;;13.31;100.00
42289;BME280;30230;47.520;19.016;2023-05-03T03:46:39;99352.53;;;13.35;100.00
42289;BME280;30230;47.520;19.016;2023-05-03T03:48:40;99353.13;;;13.37;100.00
42289;BME280;30230;47.520;19.016;2023-05-03T03:50:40;99348.41;;;13.25;100.00
42289;BME280;30230;47.520;19.016;2023-05-03T03:52:41;99370.53;;;13.22;100.00
42289;BME280;30230;47.520;19.016;2023-05-03T03:54:42;99373.25;;;13.22;100.00
42289;BME280;30230;47.520;19.016;2023-05-03T03:56:42;99376.19;;;13.14;100.00
42289;BME280;30230;47.520;19.016;2023-05-03T03:58:43;99363.47;;;13.15;100.00
42289;BME280;30230;47.520;19.016;2023-05-03T04:00:43;99375.75;;;13.17;100.00
42289;BME280;30230;47.520;19.016;2023-05-03T04:02:44;99381.16;;;13.17;100.00
42289;BME280;30230;47.520;19.016;2023-05-03T04:04:44;99383.69;;;13.19;100.00
42289;BME280;30230;47.520;19.016;2023-05-03T04:06:45;99372.00;;;13.18;100.00
42289;BME280;30230;47.520;19.016;2023-05-03T04:08:46;99378.00;;;13.27;100.00
42289;BME280;30230;47.520;19.016;2023-05-03T04:10:46;99378.41;;;13.31;100.00
42289;BME280;30230;47.520;19.016;2023-05-03T04:12:46;99380.06;;;13.32;100.00
42289;BME280;30230;47.520;19.016;2023-05-03T04:14:47;99375.53;;;13.25;100.00
42289;BME280;30230;47.520;19.016;2023-05-03T04:16:47;99374.72;;;13.18;100.00
42289;BME280;30230;47.520;19.016;2023-05-03T04:18:48;99370.50;;;13.29;100.00
42289;BME280;30230;47.520;19.016;2023-05-03T04:20:48;99361.56;;;13.22;100.00
42289;BME280;30230;47.520;19.016;2023-05-03T04:22:48;99385.50;;;13.32;100.00
42289;BME280;30230;47.520;19.016;2023-05-03T04:24:49;99381.72;;;13.33;100.00
42289;BME280;30230;47.520;19.016;2023-05-03T04:26:49;99389.69;;;13.27;100.00
42289;BME280;30230;47.520;19.016;2023-05-03T04:28:50;99383.25;;;13.22;100.00
42289;BME280;30230;47.520;19.016;2023-05-03T04:30:51;99387.84;;;13.21;100.00
42289;BME280;30230;47.520;19.016;2023-05-03T04:32:52;99392.41;;;13.27;100.00
42289;BME280;30230;47.520;19.016;2023-05-03T04:34:53;99391.16;;;13.30;100.00
42289;BME280;30230;47.520;19.016;2023-05-03T04:36:54;99397.63;;;13.29;100.00
42289;BME280;30230;47.520;19.016;2023-05-03T04:38:55;99392.63;;;13.26;100.00
42289;BME280;30230;47.520;19.016;2023-05-03T04:40:55;99406.41;;;13.24;100.00
42289;BME280;30230;47.520;19.016;2023-05-03T04:42:57;99404.50;;;13.32;100.00
42289;BME280;30230;47.520;19.016;2023-05-03T04:44:57;99385.97;;;13.28;100.00
42289;BME280;30230;47.520;19.016;2023-05-03T04:46:58;99396.97;;;13.34;100.00
42289;BME280;30230;47.520;19.016;2023-05-03T04:48:58;99402.66;;;13.25;100.00
42289;BME280;30230;47.520;19.016;2023-05-03T04:50:59;99407.47;;;13.23;100.00
42289;BME280;30230;47.520;19.016;2023-05-03T04:53:00;99412.41;;;13.33;100.00
42289;BME280;30230;47.520;19.016;2023-05-03T04:55:00;99406.41;;;13.24;100.00
42289;BME280;30230;47.520;19.016;2023-05-03T04:57:01;99410.78;;;13.25;100.00
42289;BME280;30230;47.520;19.016;2023-05-03T04:59:02;99418.50;;;13.28;100.00
42289;BME280;30230;47.520;19.016;2023-05-03T05:01:04;99422.88;;;13.29;100.00
42289;BME280;30230;47.520;19.016;2023-05-03T05:03:04;99425.41;;;13.24;100.00
42289;BME280;30230;47.520;19.016;2023-05-03T05:05:05;99424.94;;;13.34;100.00
42289;BME280;30230;47.520;19.016;2023-05-03T05:07:06;99429.13;;;13.30;100.00
42289;BME280;30230;47.520;19.016;2023-05-03T05:09:16;99421.66;;;13.25;100.00
42289;BME280;30230;47.520;19.016;2023-05-03T05:11:19;99413.50;;;13.25;100.00
42289;BME280;30230;47.520;19.016;2023-05-03T05:13:20;99424.72;;;13.36;100.00
42289;BME280;30230;47.520;19.016;2023-05-03T05:15:20;99427.84;;;13.39;100.00
42289;BME280;30230;47.520;19.016;2023-05-03T05:17:22;99422.97;;;13.48;100.00
42289;BME280;30230;47.520;19.016;2023-05-03T05:19:22;99414.44;;;13.44;100.00
42289;BME280;30230;47.520;19.016;2023-05-03T05:21:23;99420.88;;;13.50;100.00
42289;BME280;30230;47.520;19.016;2023-05-03T05:23:23;99417.72;;;13.53;100.00
42289;BME280;30230;47.520;19.016;2023-05-03T05:25:23;99424.78;;;13.61;100.00
42289;BME280;30230;47.520;19.016;2023-05-03T05:27:25;99388.75;;;13.47;100.00
42289;BME280;30230;47.520;19.016;2023-05-03T05:29:26;99424.28;;;13.70;100.00
42289;BME280;30230;47.520;19.016;2023-05-03T05:31:26;99412.19;;;13.66;100.00
42289;BME280;30230;47.520;19.016;2023-05-03T05:33:26;99422.94;;;13.79;100.00
42289;BME280;30230;47.520;19.016;2023-05-03T05:35:27;99430.06;;;13.80;100.00
42289;BME280;30230;47.520;19.016;2023-05-03T05:37:27;99425.72;;;13.98;100.00
42289;BME280;30230;47.520;19.016;2023-05-03T05:39:28;99422.41;;;13.96;100.00
42289;BME280;30230;47.520;19.016;2023-05-03T05:41:28;99424.25;;;14.02;100.00
42289;BME280;30230;47.520;19.016;2023-05-03T05:43:28;99433.38;;;14.07;100.00
42289;BME280;30230;47.520;19.016;2023-05-03T05:45:29;99429.38;;;14.10;100.00
42289;BME280;30230;47.520;19.016;2023-05-03T05:47:30;99423.13;;;14.10;100.00
42289;BME280;30230;47.520;19.016;2023-05-03T05:49:30;99423.06;;;14.16;100.00
42289;BME280;30230;47.520;19.016;2023-05-03T05:51:31;99435.38;;;14.19;100.00
42289;BME280;30230;47.520;19.016;2023-05-03T05:53:32;99417.94;;;14.26;100.00
42289;BME280;30230;47.520;19.016;2023-05-03T05:55:32;99432.06;;;14.35;100.00
42289;BME280;30230;47.520;19.016;2023-05-03T05:57:33;99440.00;;;14.37;100.00
42289;BME280;30230;47.520;19.016;2023-05-03T05:59:33;99443.19;;;14.33;100.00
42289;BME280;30230;47.520;19.016;2023-05-03T06:01:33;99433.38;;;14.32;100.00
42289;BME280;30230;47.520;19.016;2023-05-03T06:03:34;99440.91;;;14.30;100.00
42289;BME280;30230;47.520;19.016;2023-05-03T06:05:35;99445.34;;;14.25;100.00
42289;BME280;30230;47.520;19.016;2023-05-03T06:07:35;99458.50;;;14.28;100.00
42289;BME280;30230;47.520;19.016;2023-05-03T06:09:36;99463.53;;;14.24;100.00
42289;BME280;30230;47.520;19.016;2023-05-03T06:11:36;99460.97;;;14.29;100.00
42289;BME280;30230;47.520;19.016;2023-05-03T06:13:37;99462.19;;;14.33;100.00
42289;BME280;30230;47.520;19.016;2023-05-03T06:15:40;99469.69;;;14.38;100.00
42289;BME280;30230;47.520;19.016;2023-05-03T06:17:40;99465.66;;;14.22;100.00
42289;BME280;30230;47.520;19.016;2023-05-03T06:19:41;99466.47;;;14.23;100.00
42289;BME280;30230;47.520;19.016;2023-05-03T06:21:41;99461.47;;;14.20;100.00
42289;BME280;30230;47.520;19.016;2023-05-03T06:23:41;99474.31;;;14.31;100.00
42289;BME280;30230;47.520;19.016;2023-05-03T06:25:45;99476.00;;;14.32;100.00
42289;BME280;30230;47.520;19.016;2023-05-03T06:27:45;99467.91;;;14.25;100.00
42289;BME280;30230;47.520;19.016;2023-05-03T06:29:46;99481.06;;;14.28;100.00
42289;BME280;30230;47.520;19.016;2023-05-03T06:31:47;99480.59;;;14.31;100.00
42289;BME280;30230;47.520;19.016;2023-05-03T06:33:47;99486.34;;;14.42;100.00
42289;BME280;30230;47.520;19.016;2023-05-03T06:35:48;99495.13;;;14.44;100.00
42289;BME280;30230;47.520;19.016;2023-05-03T06:37:48;99501.34;;;14.51;100.00
42289;BME280;30230;47.520;19.016;2023-05-03T06:39:49;99487.56;;;14.52;100.00
42289;BME280;30230;47.520;19.016;2023-05-03T06:41:49;99491.88;;;14.60;100.00
42289;BME280;30230;47.520;19.016;2023-05-03T06:43:50;99503.28;;;14.69;100.00
42289;BME280;30230;47.520;19.016;2023-05-03T06:45:51;99495.66;;;14.77;100.00
42289;BME280;30230;47.520;19.016;2023-05-03T06:47:54;99491.00;;;14.84;100.00
42289;BME280;30230;47.520;19.016;2023-05-03T06:49:55;99473.84;;;14.84;100.00
42289;BME280;30230;47.520;19.016;2023-05-03T06:51:55;99493.34;;;14.99;100.00
42289;BME280;30230;47.520;19.016;2023-05-03T06:53:57;99495.50;;;15.09;100.00
42289;BME280;30230;47.520;19.016;2023-05-03T06:56:06;99488.56;;;15.13;100.00
42289;BME280;30230;47.520;19.016;2023-05-03T06:58:06;99499.75;;;15.23;100.00
42289;BME280;30230;47.520;19.016;2023-05-03T07:00:11;99488.84;;;15.23;100.00
42289;BME280;30230;47.520;19.016;2023-05-03T07:02:11;99498.38;;;15.32;100.00
42289;BME280;30230;47.520;19.016;2023-05-03T07:04:12;99492.78;;;15.46;100.00
42289;BME280;30230;47.520;19.016;2023-05-03T07:06:12;99489.72;;;15.54;100.00
42289;BME280;30230;47.520;19.016;2023-05-03T07:08:13;99490.91;;;15.58;100.00
42289;BME280;30230;47.520;19.016;2023-05-03T07:10:13;99494.19;;;15.67;100.00
42289;BME280;30230;47.520;19.016;2023-05-03T07:12:14;99486.84;;;15.67;100.00
42289;BME280;30230;47.520;19.016;2023-05-03T07:14:15;99489.72;;;15.72;100.00
42289;BME280;30230;47.520;19.016;2023-05-03T07:16:16;99491.41;;;15.85;100.00
42289;BME280;30230;47.520;19.016;2023-05-03T07:18:17;99498.50;;;15.86;100.00
42289;BME280;30230;47.520;19.016;2023-05-03T07:20:17;99497.22;;;15.88;100.00
42289;BME280;30230;47.520;19.016;2023-05-03T07:22:18;99493.19;;;15.91;100.00
42289;BME280;30230;47.520;19.016;2023-05-03T07:24:24;99487.53;;;15.93;100.00
42289;BME280;30230;47.520;19.016;2023-05-03T07:26:25;99499.25;;;15.93;100.00
42289;BME280;30230;47.520;19.016;2023-05-03T07:28:26;99467.25;;;15.88;100.00
42289;BME280;30230;47.520;19.016;2023-05-03T07:30:26;99488.63;;;16.03;100.00
42289;BME280;30230;47.520;19.016;2023-05-03T07:32:27;99484.13;;;16.09;100.00
42289;BME280;30230;47.520;19.016;2023-05-03T07:34:27;99497.06;;;16.25;100.00
42289;BME280;30230;47.520;19.016;2023-05-03T07:36:27;99488.19;;;16.30;100.00
42289;BME280;30230;47.520;19.016;2023-05-03T07:38:28;99486.97;;;16.26;100.00
42289;BME280;30230;47.520;19.016;2023-05-03T07:40:28;99497.44;;;16.29;100.00
42289;BME280;30230;47.520;19.016;2023-05-03T07:42:32;99496.59;;;16.40;100.00
42289;BME280;30230;47.520;19.016;2023-05-03T07:44:32;99491.84;;;16.59;100.00
42289;BME280;30230;47.520;19.016;2023-05-03T07:46:33;99498.06;;;16.78;100.00
42289;BME280;30230;47.520;19.016;2023-05-03T07:48:34;99494.19;;;17.14;97.29
42289;BME280;30230;47.520;19.016;2023-05-03T07:50:34;99497.31;;;17.06;100.00
42289;BME280;30230;47.520;19.016;2023-05-03T07:52:38;99498.16;;;17.06;100.00
42289;BME280;30230;47.520;19.016;2023-05-03T07:54:38;99491.97;;;17.11;99.82
42289;BME280;30230;47.520;19.016;2023-05-03T07:56:39;99493.25;;;17.08;94.39
42289;BME280;30230;47.520;19.016;2023-05-03T07:58:39;99497.53;;;17.04;94.58
42289;BME280;30230;47.520;19.016;2023-05-03T08:00:40;99503.00;;;17.04;100.00
42289;BME280;30230;47.520;19.016;2023-05-03T08:02:40;99505.50;;;17.06;91.08
42289;BME280;30230;47.520;19.016;2023-05-03T08:04:41;99500.03;;;16.94;99.42
42289;BME280;30230;47.520;19.016;2023-05-03T08:06:41;99507.16;;;17.07;100.00
42289;BME280;30230;47.520;19.016;2023-05-03T08:08:42;99485.69;;;16.99;96.87
42289;BME280;30230;47.520;19.016;2023-05-03T08:10:42;99507.28;;;17.12;93.18
42289;BME280;30230;47.520;19.016;2023-05-03T08:12:42;99513.31;;;17.14;95.82
42289;BME280;30230;47.520;19.016;2023-05-03T08:14:43;99508.56;;;17.09;97.19
42289;BME280;30230;47.520;19.016;2023-05-03T08:16:43;99509.88;;;17.07;97.48
42289;BME280;30230;47.520;19.016;2023-05-03T08:18:44;99516.78;;;16.98;92.17
42289;BME280;30230;47.520;19.016;2023-05-03T08:20:45;99513.25;;;16.85;91.03
42289;BME280;30230;47.520;19.016;2023-05-03T08:22:46;99518.19;;;17.12;93.50
42289;BME280;30230;47.520;19.016;2023-05-03T08:24:46;99514.09;;;17.26;94.01
42289;BME280;30230;47.520;19.016;2023-05-03T08:26:47;99516.66;;;17.44;94.80
42289;BME280;30230;47.520;19.016;2023-05-03T08:28:47;99516.19;;;17.48;91.53
42289;BME280;30230;47.520;19.016;2023-05-03T08:30:47;99513.69;;;17.46;92.13
42289;BME280;30230;47.520;19.016;2023-05-03T08:32:48;99524.81;;;17.56;92.71
42289;BME280;30230;47.520;19.016;2023-05-03T08:34:48;99524.50;;;17.53;89.08
42289;BME280;30230;47.520;19.016;2023-05-03T08:36:50;99525.16;;;17.60;85.35
42289;BME280;30230;47.520;19.016;2023-05-03T08:38:53;99514.28;;;17.88;88.28
42289;BME280;30230;47.520;19.016;2023-05-03T08:40:54;99526.31;;;18.04;86.22
42289;BME280;30230;47.520;19.016;2023-05-03T08:42:58;99523.50;;;17.99;88.21
42289;BME280;30230;47.520;19.016;2023-05-03T08:45:09;99527.53;;;17.96;86.83
42289;BME280;30230;47.520;19.016;2023-05-03T08:47:09;99522.16;;;18.02;84.89
42289;BME280;30230;47.520;19.016;2023-05-03T08:49:11;99531.16;;;18.31;87.58
42289;BME280;30230;47.520;19.016;2023-05-03T08:51:12;99520.03;;;18.71;80.61
42289;BME280;30230;47.520;19.016;2023-05-03T08:53:13;99531.78;;;19.05;82.58
42289;BME280;30230;47.520;19.016;2023-05-03T08:55:13;99519.56;;;19.13;79.49
42289;BME280;30230;47.520;19.016;2023-05-03T08:57:15;99528.75;;;19.23;77.15
42289;BME280;30230;47.520;19.016;2023-05-03T08:59:16;99524.09;;;19.24;77.56
42289;BME280;30230;47.520;19.016;2023-05-03T09:01:17;99532.09;;;19.09;83.52
42289;BME280;30230;47.520;19.016;2023-05-03T09:03:19;99538.59;;;18.86;79.78
42289;BME280;30230;47.520;19.016;2023-05-03T09:07:20;99529.81;;;18.67;79.72
42289;BME280;30230;47.520;19.016;2023-05-03T09:09:29;99532.34;;;18.68;80.84
42289;BME280;30230;47.520;19.016;2023-05-03T09:11:31;99520.63;;;18.56;82.32
42289;BME280;30230;47.520;19.016;2023-05-03T09:13:31;99526.50;;;18.65;84.38
42289;BME280;30230;47.520;19.016;2023-05-03T09:15:32;99520.78;;;18.66;81.81
42289;BME280;30230;47.520;19.016;2023-05-03T09:17:33;99517.56;;;18.53;81.41
42289;BME280;30230;47.520;19.016;2023-05-03T09:19:52;99522.94;;;18.47;87.86
42289;BME280;30230;47.520;19.016;2023-05-03T09:22:05;99525.69;;;18.47;85.48
42289;BME280;30230;47.520;19.016;2023-05-03T09:24:22;99527.69;;;18.35;84.27
42289;BME280;30230;47.520;19.016;2023-05-03T09:26:34;99532.81;;;18.32;84.21
42289;BME280;30230;47.520;19.016;2023-05-03T09:28:41;99530.06;;;18.32;89.12
42289;BME280;30230;47.520;19.016;2023-05-03T09:30:43;99534.03;;;18.24;88.96
42289;BME280;30230;47.520;19.016;2023-05-03T09:32:47;99529.31;;;18.19;82.88
42289;BME280;30230;47.520;19.016;2023-05-03T09:34:48;99528.00;;;18.22;85.57
42289;BME280;30230;47.520;19.016;2023-05-03T09:36:49;99534.88;;;18.25;82.72
42289;BME280;30230;47.520;19.016;2023-05-03T09:38:53;99531.47;;;18.17;82.90
42289;BME280;30230;47.520;19.016;2023-05-03T09:40:54;99534.63;;;18.26;82.75
42289;BME280;30230;47.520;19.016;2023-05-03T09:45:05;99522.59;;;18.44;80.49
42289;BME280;30230;47.520;19.016;2023-05-03T09:47:08;99532.31;;;18.52;83.70
42289;BME280;30230;47.520;19.016;2023-05-03T09:49:09;99525.09;;;18.62;85.36
42289;BME280;30230;47.520;19.016;2023-05-03T09:51:12;99523.84;;;18.53;78.76
42289;BME280;30230;47.520;19.016;2023-05-03T09:53:14;99523.78;;;18.48;81.45
42289;BME280;30230;47.520;19.016;2023-05-03T09:55:18;99523.53;;;18.66;82.51
42289;BME280;30230;47.520;19.016;2023-05-03T09:57:18;99523.69;;;18.60;84.59
42289;BME280;30230;47.520;19.016;2023-05-03T09:59:19;99524.84;;;18.64;85.57
42289;BME280;30230;47.520;19.016;2023-05-03T10:01:20;99526.84;;;18.85;80.25
42289;BME280;30230;47.520;19.016;2023-05-03T10:05:32;99520.03;;;18.71;81.94
42289;BME280;30230;47.520;19.016;2023-05-03T10:07:37;99522.44;;;18.84;82.38
42289;BME280;30230;47.520;19.016;2023-05-03T10:09:45;99526.75;;;18.97;76.73
42289;BME280;30230;47.520;19.016;2023-05-03T10:11:49;99524.38;;;19.06;77.69
42289;BME280;30230;47.520;19.016;2023-05-03T10:13:51;99523.97;;;19.14;79.89
42289;BME280;30230;47.520;19.016;2023-05-03T10:15:58;99519.66;;;19.18;80.10
42289;BME280;30230;47.520;19.016;2023-05-03T10:18:01;99518.56;;;19.41;77.37
42289;BME280;30230;47.520;19.016;2023-05-03T10:20:13;99518.16;;;19.32;78.08
42289;BME280;30230;47.520;19.016;2023-05-03T10:22:16;99521.28;;;19.41;76.59
42289;BME280;30230;47.520;19.016;2023-05-03T10:24:16;99518.22;;;19.37;73.93
42289;BME280;30230;47.520;19.016;2023-05-03T10:26:17;99515.34;;;19.27;76.91
42289;BME280;30230;47.520;19.016;2023-05-03T10:28:17;99516.38;;;19.21;79.37
42289;BME280;30230;47.520;19.016;2023-05-03T10:30:32;99518.97;;;19.11;77.83
42289;BME280;30230;47.520;19.016;2023-05-03T10:32:37;99513.84;;;19.14;79.84
42289;BME280;30230;47.520;19.016;2023-05-03T10:34:40;99513.00;;;19.14;79.43
42289;BME280;30230;47.520;19.016;2023-05-03T10:36:41;99511.34;;;19.13;83.57
42289;BME280;30230;47.520;19.016;2023-05-03T10:38:43;99505.56;;;19.31;77.08
42289;BME280;30230;47.520;19.016;2023-05-03T10:40:43;99511.16;;;19.19;78.23
42289;BME280;30230;47.520;19.016;2023-05-03T10:42:53;99505.22;;;19.06;78.47